Time;durP1;ratioP1;P1;durP2;ratioP2;P2;SDS_P1;SDS_P2;PMS_P1;PMS_P2;Temp;Humidity;BMP_temperature;BMP_pressure;BME280_temperature;BME280_humidity;BME280_pressure;Samples;Min_cycle;Max_cycle;Signal;HPM_P1;HPM_P2
2024/04/24 00:01:03;;;;;;;29.50;12.05;;;;;;;;;;5540863;26;20030;-41
2024/04/24 00:03:30;;;;;;;26.77;11.27;;;;;;;;;;5542530;25;20179;-47
2024/04/24 00:05:56;;;;;;;29.13;11.18;;;;;;;;;;5542744;25;20214;-46
2024/04/24 00:08:23;;;;;;;32.90;9.85;;;;;;;;;;5541809;25;19997;-42
2024/04/24 00:10:53;;;;;;;26.63;9.27;;;;;;;;;;5540927;26;19996;-43
2024/04/24 00:13:19;;;;;;;33.67;9.60;;;;;;;;;;5540797;26;19986;-46
2024/04/24 00:15:46;;;;;;;22.77;9.27;;;;;;;;;;5541200;26;19989;-47
2024/04/24 00:18:12;;;;;;;26.40;9.13;;;;;;;;;;5541511;26;19990;-46
2024/04/24 00:20:39;;;;;;;25.50;9.82;;;;;;;;;;5540704;26;20001;-41
2024/04/24 00:23:06;;;;;;;80.25;12.77;;;;;;;;;;5540658;26;19988;-44
2024/04/24 00:25:35;;;;;;;38.80;9.23;;;;;;;;;;5537446;26;19985;-43
2024/04/24 00:28:01;;;;;;;33.65;8.98;;;;;;;;;;5537962;26;19993;-43
2024/04/24 00:30:28;;;;;;;25.33;8.27;;;;;;;;;;5538345;26;20001;-45
2024/04/24 00:32:56;;;;;;;27.00;8.48;;;;;;;;;;5538404;26;19992;-44
2024/04/24 00:35:22;;;;;;;25.50;7.80;;;;;;;;;;5538052;26;20097;-45
2024/04/24 00:37:49;;;;;;;20.73;6.90;;;;;;;;;;5538638;26;19993;-44
2024/04/24 00:40:15;;;;;;;26.05;7.30;;;;;;;;;;5540094;26;20083;-43
2024/04/24 00:42:42;;;;;;;25.77;7.28;;;;;;;;;;5540990;26;19981;-51
2024/04/24 00:45:09;;;;;;;22.02;6.07;;;;;;;;;;5540742;26;20010;-43
2024/04/24 00:47:37;;;;;;;29.48;7.60;;;;;;;;;;5540745;26;20021;-43
2024/04/24 00:50:04;;;;;;;21.95;7.55;;;;;;;;;;5540564;26;20001;-44
2024/04/24 00:52:31;;;;;;;20.15;7.28;;;;;;;;;;5540335;26;20002;-43
2024/04/24 00:54:58;;;;;;;26.08;8.00;;;;;;;;;;5508858;26;19985;-44
2024/04/24 00:57:25;;;;;;;22.08;6.80;;;;;;;;;;5540330;26;20000;-44
2024/04/24 00:59:51;;;;;;;20.77;7.22;;;;;;;;;;5540892;26;20013;-50
2024/04/24 01:02:18;;;;;;;18.95;6.25;;;;;;;;;;5541179;26;20041;-45
2024/04/24 01:04:44;;;;;;;22.77;6.15;;;;;;;;;;5540193;26;19992;-43
2024/04/24 01:07:11;;;;;;;21.05;6.85;;;;;;;;;;5540514;26;20038;-48
2024/04/24 01:09:38;;;;;;;19.35;5.88;;;;;;;;;;5540419;26;19985;-43
2024/04/24 01:12:04;;;;;;;15.60;5.43;;;;;;;;;;5540208;26;19989;-43
2024/04/24 01:14:31;;;;;;;19.15;6.10;;;;;;;;;;5540267;26;19993;-45
2024/04/24 01:16:58;;;;;;;19.60;5.80;;;;;;;;;;5540429;26;20086;-48
2024/04/24 01:19:43;;;;;;;18.33;5.20;;;;;;;;;;5540136;26;19992;-47
2024/04/24 01:22:10;;;;;;;16.52;5.55;;;;;;;;;;5540109;26;19989;-44
2024/04/24 01:24:42;;;;;;;17.88;5.38;;;;;;;;;;5540302;26;20031;-44
2024/04/24 01:27:10;;;;;;;17.25;5.47;;;;;;;;;;5540217;26;19985;-44
2024/04/24 01:29:37;;;;;;;20.70;5.22;;;;;;;;;;5540195;26;19985;-42
2024/04/24 01:32:03;;;;;;;18.45;5.10;;;;;;;;;;5539928;26;19989;-50
2024/04/24 01:34:30;;;;;;;23.15;10.98;;;;;;;;;;5540241;26;19984;-46
2024/04/24 01:36:56;;;;;;;19.52;9.48;;;;;;;;;;5535875;25;20000;-40
2024/04/24 01:39:23;;;;;;;20.80;6.28;;;;;;;;;;5539335;25;19997;-42
2024/04/24 01:41:50;;;;;;;21.25;6.88;;;;;;;;;;5521759;26;19998;-46
2024/04/24 01:44:16;;;;;;;17.20;5.30;;;;;;;;;;5502792;26;19978;-42
2024/04/24 01:46:43;;;;;;;20.77;6.13;;;;;;;;;;5502621;26;19982;-44
2024/04/24 01:49:09;;;;;;;22.65;5.97;;;;;;;;;;5502242;26;19986;-40
2024/04/24 01:51:36;;;;;;;21.13;6.18;;;;;;;;;;5502517;26;19993;-42
2024/04/24 01:54:02;;;;;;;16.85;5.15;;;;;;;;;;5502408;26;19994;-41
2024/04/24 01:56:29;;;;;;;18.67;5.53;;;;;;;;;;5502245;26;20095;-43
2024/04/24 01:58:55;;;;;;;18.38;5.68;;;;;;;;;;5502581;25;20128;-43
2024/04/24 02:01:22;;;;;;;24.75;6.07;;;;;;;;;;5518054;26;19989;-41
2024/04/24 02:03:49;;;;;;;16.40;4.95;;;;;;;;;;5539744;26;20135;-45
2024/04/24 02:06:15;;;;;;;17.63;5.22;;;;;;;;;;5542872;26;19989;-45
2024/04/24 02:08:42;;;;;;;18.30;5.55;;;;;;;;;;5543126;26;20009;-43
2024/04/24 02:11:08;;;;;;;17.50;5.28;;;;;;;;;;5542323;26;20139;-45
2024/04/24 02:13:35;;;;;;;21.58;5.38;;;;;;;;;;5564147;25;20097;-45
2024/04/24 02:16:01;;;;;;;19.42;4.78;;;;;;;;;;5542697;26;19989;-41
2024/04/24 02:18:28;;;;;;;24.88;6.13;;;;;;;;;;5542207;26;19989;-39
2024/04/24 02:20:55;;;;;;;17.02;5.63;;;;;;;;;;5539253;25;20000;-44
2024/04/24 02:23:30;;;;;;;18.65;5.90;;;;;;;;;;5542341;26;20119;-40
2024/04/24 02:25:57;;;;;;;17.13;5.47;;;;;;;;;;5538941;26;19993;-47
2024/04/24 02:28:24;;;;;;;15.15;4.90;;;;;;;;;;5542159;26;20056;-43
2024/04/24 02:30:50;;;;;;;16.13;5.30;;;;;;;;;;5537279;26;20008;-43
2024/04/24 02:33:17;;;;;;;25.13;5.53;;;;;;;;;;5541923;26;19989;-41
2024/04/24 02:35:43;;;;;;;14.63;5.13;;;;;;;;;;5542126;26;20008;-46
2024/04/24 02:38:10;;;;;;;19.25;4.60;;;;;;;;;;5537266;26;19993;-42
2024/04/24 02:40:36;;;;;;;16.50;4.68;;;;;;;;;;5542045;26;20018;-43
2024/04/24 02:43:03;;;;;;;20.55;5.32;;;;;;;;;;5542598;26;19982;-41
2024/04/24 02:45:30;;;;;;;16.77;4.50;;;;;;;;;;5530670;26;20009;-45
2024/04/24 02:47:56;;;;;;;19.05;4.90;;;;;;;;;;5507888;26;20087;-44
2024/04/24 02:50:23;;;;;;;14.50;4.80;;;;;;;;;;5507382;25;21833;-41
2024/04/24 02:52:50;;;;;;;17.63;4.88;;;;;;;;;;5524093;26;19982;-40
2024/04/24 02:55:16;;;;;;;17.35;4.72;;;;;;;;;;5505189;26;19998;-39
2024/04/24 02:57:43;;;;;;;14.55;4.15;;;;;;;;;;5527700;26;19993;-41
2024/04/24 03:00:10;;;;;;;24.52;5.22;;;;;;;;;;5528481;25;19994;-40
2024/04/24 03:02:37;;;;;;;13.93;4.57;;;;;;;;;;5520720;26;20006;-43
2024/04/24 03:05:03;;;;;;;16.77;5.25;;;;;;;;;;5505200;26;19994;-43
2024/04/24 03:07:30;;;;;;;15.60;4.70;;;;;;;;;;5505150;26;19986;-45
2024/04/24 03:09:56;;;;;;;17.88;4.50;;;;;;;;;;5504683;26;20022;-41
2024/04/24 03:12:25;;;;;;;16.70;5.13;;;;;;;;;;5505197;26;20002;-41
2024/04/24 03:14:51;;;;;;;19.30;5.20;;;;;;;;;;5504772;26;20043;-40
2024/04/24 03:17:18;;;;;;;16.08;4.75;;;;;;;;;;5504898;26;19988;-44
2024/04/24 03:19:44;;;;;;;20.80;4.70;;;;;;;;;;5529199;26;19993;-44
2024/04/24 03:22:13;;;;;;;19.65;5.32;;;;;;;;;;5530878;25;19998;-44
2024/04/24 03:24:39;;;;;;;20.20;5.47;;;;;;;;;;5525863;26;19989;-50
2024/04/24 03:27:06;;;;;;;15.18;5.00;;;;;;;;;;5541728;26;20006;-44
2024/04/24 03:29:33;;;;;;;17.70;4.82;;;;;;;;;;5541555;26;20010;-40
2024/04/24 03:31:59;;;;;;;15.75;4.97;;;;;;;;;;5541868;26;19997;-45
2024/04/24 03:34:26;;;;;;;15.93;4.72;;;;;;;;;;5541709;26;19997;-44
2024/04/24 03:36:52;;;;;;;16.85;5.50;;;;;;;;;;5541612;26;20000;-50
2024/04/24 03:39:19;;;;;;;13.43;4.80;;;;;;;;;;5541789;26;20009;-43
2024/04/24 03:41:46;;;;;;;20.83;5.05;;;;;;;;;;5541594;26;19989;-44
2024/04/24 03:44:12;;;;;;;17.02;4.68;;;;;;;;;;5541629;26;19990;-48
2024/04/24 03:46:40;;;;;;;15.68;5.00;;;;;;;;;;5541529;26;19982;-49
2024/04/24 03:49:07;;;;;;;19.83;4.57;;;;;;;;;;5541595;26;19986;-42
2024/04/24 03:51:34;;;;;;;16.50;5.05;;;;;;;;;;5541516;26;19996;-48
2024/04/24 03:54:01;;;;;;;11.75;4.20;;;;;;;;;;5518001;26;20039;-44
2024/04/24 03:56:27;;;;;;;14.45;4.32;;;;;;;;;;5541327;26;20080;-42
2024/04/24 03:58:54;;;;;;;14.95;4.90;;;;;;;;;;5541365;26;19987;-47
2024/04/24 04:01:24;;;;;;;15.98;4.43;;;;;;;;;;5541261;26;19997;-46
2024/04/24 04:03:51;;;;;;;11.00;4.28;;;;;;;;;;5541058;26;20041;-44
2024/04/24 04:06:18;;;;;;;18.02;4.80;;;;;;;;;;5541352;26;19997;-43
2024/04/24 04:08:44;;;;;;;14.15;3.90;;;;;;;;;;5541080;26;19986;-46
2024/04/24 04:11:11;;;;;;;10.32;4.18;;;;;;;;;;5540924;26;20009;-42
2024/04/24 04:13:37;;;;;;;15.95;4.80;;;;;;;;;;5541258;26;20010;-43
2024/04/24 04:16:04;;;;;;;17.52;4.13;;;;;;;;;;5541077;26;19985;-45
2024/04/24 04:18:32;;;;;;;14.52;4.53;;;;;;;;;;5541067;26;19982;-42
2024/04/24 04:20:58;;;;;;;18.23;4.20;;;;;;;;;;5540937;26;20034;-47
2024/04/24 04:23:25;;;;;;;12.32;4.32;;;;;;;;;;5540958;26;19981;-47
2024/04/24 04:25:52;;;;;;;15.88;4.22;;;;;;;;;;5540527;26;20027;-46
2024/04/24 04:28:18;;;;;;;15.00;4.30;;;;;;;;;;5539943;26;19985;-47
2024/04/24 04:30:50;;;;;;;16.00;4.78;;;;;;;;;;5540767;26;19996;-47
2024/04/24 04:33:17;;;;;;;14.52;4.55;;;;;;;;;;5540737;26;20038;-48
2024/04/24 04:35:43;;;;;;;10.27;3.65;;;;;;;;;;5540739;26;19997;-51
2024/04/24 04:38:10;;;;;;;14.27;4.82;;;;;;;;;;5540816;26;20231;-52
2024/04/24 04:40:36;;;;;;;10.75;4.00;;;;;;;;;;5540351;26;19990;-42
2024/04/24 04:43:03;;;;;;;13.43;3.88;;;;;;;;;;5540874;26;20038;-43
2024/04/24 04:45:29;;;;;;;13.93;3.97;;;;;;;;;;5540827;26;20001;-43
2024/04/24 04:47:56;;;;;;;10.80;4.28;;;;;;;;;;5540470;26;20194;-49
2024/04/24 04:50:23;;;;;;;13.95;4.55;;;;;;;;;;5540608;26;20001;-46
2024/04/24 04:52:49;;;;;;;14.18;4.45;;;;;;;;;;5540604;26;19981;-42
2024/04/24 04:55:16;;;;;;;13.88;4.50;;;;;;;;;;5540346;26;20047;-49
2024/04/24 04:57:42;;;;;;;10.40;3.58;;;;;;;;;;5540530;26;19987;-51
2024/04/24 05:00:09;;;;;;;14.82;3.70;;;;;;;;;;5540432;26;19994;-50
2024/04/24 05:02:37;;;;;;;12.57;3.97;;;;;;;;;;5529326;25;19986;-43
2024/04/24 05:05:03;;;;;;;11.85;3.90;;;;;;;;;;5518762;26;20183;-44
2024/04/24 05:07:30;;;;;;;13.70;3.85;;;;;;;;;;5503527;26;20180;-49
2024/04/24 05:09:56;;;;;;;13.65;4.22;;;;;;;;;;5503058;26;20035;-49
2024/04/24 05:12:23;;;;;;;12.57;3.53;;;;;;;;;;5503334;26;20194;-49
2024/04/24 05:14:51;;;;;;;15.18;3.80;;;;;;;;;;5503308;26;19993;-52
2024/04/24 05:17:18;;;;;;;13.07;3.72;;;;;;;;;;5503141;26;20195;-46
2024/04/24 05:19:44;;;;;;;14.52;4.03;;;;;;;;;;5503165;26;19994;-43
2024/04/24 05:22:11;;;;;;;17.42;4.28;;;;;;;;;;5503256;26;19993;-45
2024/04/24 05:24:38;;;;;;;9.80;3.97;;;;;;;;;;5503065;26;19992;-42
2024/04/24 05:29:50;;;;;;;15.75;4.30;;;;;;;;;;5503183;26;19993;-42
2024/04/24 05:32:16;;;;;;;10.40;3.65;;;;;;;;;;5502721;26;19986;-43
2024/04/24 05:34:43;;;;;;;13.65;3.95;;;;;;;;;;5502718;26;19998;-43
2024/04/24 05:37:09;;;;;;;15.68;4.25;;;;;;;;;;5502789;26;19992;-43
2024/04/24 05:39:36;;;;;;;14.20;4.07;;;;;;;;;;5504216;26;19982;-49
2024/04/24 05:42:02;;;;;;;10.38;3.85;;;;;;;;;;5506255;26;19990;-45
2024/04/24 05:44:33;;;;;;;11.73;4.15;;;;;;;;;;5506193;26;19992;-41
2024/04/24 05:47:01;;;;;;;13.35;3.85;;;;;;;;;;5506097;26;19986;-45
2024/04/24 05:49:28;;;;;;;11.70;3.55;;;;;;;;;;5506246;26;19986;-43
2024/04/24 05:51:55;;;;;;;9.18;3.50;;;;;;;;;;5506476;26;20002;-44
2024/04/24 05:54:21;;;;;;;13.15;3.80;;;;;;;;;;5505853;26;19993;-40
2024/04/24 05:56:48;;;;;;;14.60;4.43;;;;;;;;;;5506073;26;20014;-41
2024/04/24 05:59:14;;;;;;;14.85;4.57;;;;;;;;;;5506207;26;20010;-48
2024/04/24 06:01:41;;;;;;;11.85;4.30;;;;;;;;;;5505748;26;20183;-43
2024/04/24 06:04:07;;;;;;;12.18;3.83;;;;;;;;;;5506004;26;20080;-45
2024/04/24 06:06:34;;;;;;;10.82;4.05;;;;;;;;;;5505934;26;20183;-43
2024/04/24 06:09:01;;;;;;;14.70;4.18;;;;;;;;;;5505712;26;19985;-50
2024/04/24 06:11:28;;;;;;;14.23;4.03;;;;;;;;;;5505834;26;19997;-42
2024/04/24 06:13:54;;;;;;;17.90;4.43;;;;;;;;;;5505878;26;20162;-48
2024/04/24 06:16:21;;;;;;;13.65;4.45;;;;;;;;;;5505581;26;20122;-48
2024/04/24 06:18:48;;;;;;;13.02;4.20;;;;;;;;;;5505758;26;20094;-44
2024/04/24 06:21:14;;;;;;;10.25;3.90;;;;;;;;;;5505661;26;20001;-41
2024/04/24 06:23:41;;;;;;;12.98;3.90;;;;;;;;;;5505643;26;19998;-42
2024/04/24 06:26:08;;;;;;;12.18;4.57;;;;;;;;;;5505687;26;20002;-45
2024/04/24 06:28:34;;;;;;;12.93;3.70;;;;;;;;;;5505549;26;20090;-44
2024/04/24 06:31:01;;;;;;;13.70;3.90;;;;;;;;;;5505423;26;19990;-45
2024/04/24 06:33:27;;;;;;;14.23;4.43;;;;;;;;;;5505614;26;20042;-50
2024/04/24 06:35:54;;;;;;;11.85;3.53;;;;;;;;;;5505689;26;20095;-51
2024/04/24 06:38:21;;;;;;;8.82;3.97;;;;;;;;;;5505348;26;20105;-43
2024/04/24 06:40:48;;;;;;;10.35;3.90;;;;;;;;;;5505308;26;20130;-42
2024/04/24 06:43:14;;;;;;;13.98;3.70;;;;;;;;;;5505443;26;20082;-44
2024/04/24 06:45:41;;;;;;;10.98;3.50;;;;;;;;;;5505210;26;20042;-46
2024/04/24 06:48:07;;;;;;;16.17;3.75;;;;;;;;;;5505458;26;19986;-41
2024/04/24 06:50:34;;;;;;;12.35;3.67;;;;;;;;;;5504652;26;19986;-49
2024/04/24 06:53:00;;;;;;;10.43;3.80;;;;;;;;;;5505289;26;19999;-41
2024/04/24 06:55:27;;;;;;;10.77;3.35;;;;;;;;;;5505127;26;19996;-46
2024/04/24 06:57:53;;;;;;;11.82;4.13;;;;;;;;;;5505254;26;20002;-47
2024/04/24 07:00:20;;;;;;;11.48;3.53;;;;;;;;;;5505401;26;19994;-47
2024/04/24 07:02:47;;;;;;;11.80;3.97;;;;;;;;;;5505370;26;19986;-48
2024/04/24 07:05:13;;;;;;;13.05;4.10;;;;;;;;;;5504996;26;20006;-44
2024/04/24 07:07:40;;;;;;;12.00;3.80;;;;;;;;;;5505221;26;20215;-47
2024/04/24 07:10:07;;;;;;;10.10;3.72;;;;;;;;;;5504732;26;20113;-47
2024/04/24 07:12:33;;;;;;;8.20;3.60;;;;;;;;;;5505006;26;20087;-45
2024/04/24 07:15:00;;;;;;;11.52;3.78;;;;;;;;;;5504954;26;19986;-49
2024/04/24 07:17:26;;;;;;;12.05;3.50;;;;;;;;;;5504773;26;20035;-42
2024/04/24 07:19:53;;;;;;;10.50;3.22;;;;;;;;;;5504867;26;19986;-43
2024/04/24 07:22:20;;;;;;;10.10;3.50;;;;;;;;;;5504881;26;19982;-43
2024/04/24 07:24:46;;;;;;;11.05;3.60;;;;;;;;;;5504575;26;20215;-44
2024/04/24 07:27:13;;;;;;;12.52;3.60;;;;;;;;;;5504898;26;19990;-49
2024/04/24 07:29:40;;;;;;;11.98;4.03;;;;;;;;;;5504896;26;20050;-50
2024/04/24 07:32:06;;;;;;;10.05;3.80;;;;;;;;;;5504634;26;20002;-44
2024/04/24 07:34:33;;;;;;;14.70;3.88;;;;;;;;;;5504578;26;20046;-46
2024/04/24 07:36:59;;;;;;;12.45;3.80;;;;;;;;;;5504777;26;19998;-42
2024/04/24 07:39:26;;;;;;;10.18;3.70;;;;;;;;;;5524626;26;20144;-43
2024/04/24 07:41:52;;;;;;;14.20;4.03;;;;;;;;;;5504868;26;20109;-42
2024/04/24 07:44:19;;;;;;;14.20;3.63;;;;;;;;;;5504579;26;20023;-45
2024/04/24 07:46:46;;;;;;;9.35;3.42;;;;;;;;;;5504350;26;19986;-46
2024/04/24 07:49:12;;;;;;;18.10;3.67;;;;;;;;;;5504572;26;20111;-41
2024/04/24 07:51:39;;;;;;;13.85;3.60;;;;;;;;;;5504492;26;20198;-46
2024/04/24 07:54:06;;;;;;;11.75;3.65;;;;;;;;;;5504334;26;19978;-45
2024/04/24 07:56:32;;;;;;;11.98;3.63;;;;;;;;;;5504298;26;20036;-41
2024/04/24 07:59:00;;;;;;;11.45;3.55;;;;;;;;;;5504375;26;20008;-49
2024/04/24 08:01:27;;;;;;;9.60;3.55;;;;;;;;;;5502807;26;19990;-44
2024/04/24 08:03:54;;;;;;;10.90;3.92;;;;;;;;;;5504195;26;19998;-45
2024/04/24 08:06:20;;;;;;;13.55;3.70;;;;;;;;;;5504207;26;20183;-45
2024/04/24 08:08:47;;;;;;;12.43;3.30;;;;;;;;;;5504171;26;20153;-42
2024/04/24 08:11:13;;;;;;;15.75;3.50;;;;;;;;;;5504147;26;19997;-42
2024/04/24 08:13:40;;;;;;;13.68;3.42;;;;;;;;;;5504113;26;19997;-40
2024/04/24 08:16:06;;;;;;;10.48;3.70;;;;;;;;;;5504039;26;20006;-42
2024/04/24 08:18:33;;;;;;;11.43;3.38;;;;;;;;;;5503941;26;20010;-46
2024/04/24 08:21:01;;;;;;;10.10;3.33;;;;;;;;;;5504007;26;19990;-44
2024/04/24 08:23:27;;;;;;;15.90;4.28;;;;;;;;;;5504036;26;19990;-46
2024/04/24 08:25:55;;;;;;;12.95;3.60;;;;;;;;;;5503694;26;20113;-42
2024/04/24 08:28:23;;;;;;;11.02;3.55;;;;;;;;;;5503833;26;20001;-48
2024/04/24 08:30:49;;;;;;;11.75;3.33;;;;;;;;;;5503845;26;20082;-42
2024/04/24 08:33:16;;;;;;;11.05;3.10;;;;;;;;;;5503690;26;19986;-49
2024/04/24 08:35:42;;;;;;;15.05;3.70;;;;;;;;;;5503751;26;19986;-42
2024/04/24 08:38:09;;;;;;;17.02;3.72;;;;;;;;;;5503833;26;19996;-43
2024/04/24 08:40:35;;;;;;;11.57;5.07;;;;;;;;;;5503408;26;19990;-43
2024/04/24 08:43:02;;;;;;;18.35;6.93;;;;;;;;;;5503766;26;20208;-44
2024/04/24 08:45:29;;;;;;;12.50;6.15;;;;;;;;;;5503807;26;19990;-52
2024/04/24 08:47:56;;;;;;;14.23;4.97;;;;;;;;;;5503420;26;19986;-51
2024/04/24 08:50:23;;;;;;;13.13;5.47;;;;;;;;;;5503592;26;19989;-50
2024/04/24 08:52:53;;;;;;;13.77;4.85;;;;;;;;;;5503599;26;19990;-49
2024/04/24 08:55:20;;;;;;;14.23;5.07;;;;;;;;;;5503315;26;20001;-56
2024/04/24 08:57:47;;;;;;;7.63;4.15;;;;;;;;;;5503583;26;20031;-45
2024/04/24 09:00:14;;;;;;;9.43;4.18;;;;;;;;;;5503435;26;19986;-46
2024/04/24 09:02:46;;;;;;;10.02;4.00;;;;;;;;;;5503234;26;19989;-42
2024/04/24 09:05:14;;;;;;;10.02;3.88;;;;;;;;;;5503485;26;19986;-46
2024/04/24 09:07:41;;;;;;;14.55;4.18;;;;;;;;;;5503338;26;19985;-47
2024/04/24 09:10:08;;;;;;;9.32;3.60;;;;;;;;;;5502941;26;19998;-43
2024/04/24 09:12:36;;;;;;;11.25;3.72;;;;;;;;;;5502840;26;19990;-51
2024/04/24 09:15:03;;;;;;;10.00;3.97;;;;;;;;;;5503158;26;19982;-47
2024/04/24 09:17:31;;;;;;;14.75;4.30;;;;;;;;;;5502986;26;19993;-42
2024/04/24 09:19:58;;;;;;;14.32;3.95;;;;;;;;;;5503076;26;20038;-44
2024/04/24 09:22:24;;;;;;;12.05;3.90;;;;;;;;;;5503030;26;19986;-43
2024/04/24 09:24:55;;;;;;;16.00;4.05;;;;;;;;;;5502875;26;20030;-42
2024/04/24 09:27:22;;;;;;;11.35;3.90;;;;;;;;;;5502956;26;20050;-43
2024/04/24 09:29:48;;;;;;;13.95;4.15;;;;;;;;;;5502795;26;19994;-43
2024/04/24 09:32:15;;;;;;;9.68;3.90;;;;;;;;;;5502732;26;19996;-46
2024/04/24 09:34:42;;;;;;;13.25;4.18;;;;;;;;;;5502764;26;20028;-45
2024/04/24 09:37:08;;;;;;;16.58;4.35;;;;;;;;;;5503035;26;20047;-43
2024/04/24 09:39:36;;;;;;;10.32;3.85;;;;;;;;;;5502278;26;19986;-48
2024/04/24 09:42:03;;;;;;;14.10;4.53;;;;;;;;;;5502735;26;19997;-44
2024/04/24 09:44:31;;;;;;;12.10;4.28;;;;;;;;;;5498021;26;19986;-42
2024/04/24 09:46:58;;;;;;;10.63;4.90;;;;;;;;;;5478517;26;20196;-41
2024/04/24 09:49:25;;;;;;;12.85;4.68;;;;;;;;;;5502360;26;20219;-41
2024/04/24 09:51:52;;;;;;;11.80;4.70;;;;;;;;;;5502814;26;20002;-44
2024/04/24 09:54:21;;;;;;;15.20;4.43;;;;;;;;;;5502326;26;19993;-41
2024/04/24 09:56:50;;;;;;;11.98;4.78;;;;;;;;;;5502459;26;20028;-41
2024/04/24 09:59:17;;;;;;;13.05;4.20;;;;;;;;;;5502421;26;20207;-50
2024/04/24 10:01:45;;;;;;;14.32;5.13;;;;;;;;;;5502289;26;20034;-51
2024/04/24 10:04:15;;;;;;;11.02;4.03;;;;;;;;;;5502316;26;20103;-42
2024/04/24 10:06:43;;;;;;;14.10;4.47;;;;;;;;;;5502095;26;19998;-43
2024/04/24 10:09:11;;;;;;;16.55;4.35;;;;;;;;;;5502224;26;20247;-42
2024/04/24 10:11:47;;;;;;;16.70;4.75;;;;;;;;;;5502108;26;19993;-41
2024/04/24 10:14:15;;;;;;;16.00;4.68;;;;;;;;;;5501977;26;20091;-42
2024/04/24 10:16:42;;;;;;;12.07;4.30;;;;;;;;;;5502022;26;20197;-46
2024/04/24 10:19:09;;;;;;;15.75;4.55;;;;;;;;;;5502086;26;19997;-41
2024/04/24 10:21:35;;;;;;;13.38;4.28;;;;;;;;;;5502081;26;19986;-41
2024/04/24 10:24:03;;;;;;;22.23;4.75;;;;;;;;;;5502035;26;19990;-44
2024/04/24 10:26:31;;;;;;;17.15;5.00;;;;;;;;;;5505281;26;20203;-46
2024/04/24 10:28:58;;;;;;;22.23;4.70;;;;;;;;;;5505355;26;19994;-51
2024/04/24 10:31:25;;;;;;;16.27;5.00;;;;;;;;;;5505616;26;20094;-47
2024/04/24 10:33:51;;;;;;;14.98;4.60;;;;;;;;;;5505627;26;19982;-43
2024/04/24 10:36:18;;;;;;;16.33;4.43;;;;;;;;;;5505373;26;20104;-47
2024/04/24 10:38:45;;;;;;;11.60;4.40;;;;;;;;;;5542415;25;20000;-47
2024/04/24 10:41:12;;;;;;;13.02;4.30;;;;;;;;;;5542184;26;19990;-44
2024/04/24 10:43:41;;;;;;;14.48;4.55;;;;;;;;;;5542153;26;20001;-46
2024/04/24 10:46:07;;;;;;;16.88;5.57;;;;;;;;;;5542304;26;19986;-44
2024/04/24 10:48:43;;;;;;;19.15;5.38;;;;;;;;;;5542257;26;19989;-45
2024/04/24 10:51:10;;;;;;;20.83;5.35;;;;;;;;;;5542020;26;19988;-45
2024/04/24 10:53:47;;;;;;;18.25;5.15;;;;;;;;;;5542307;26;20042;-45
2024/04/24 10:56:17;;;;;;;16.23;5.47;;;;;;;;;;5541950;26;19990;-45
2024/04/24 10:58:52;;;;;;;20.63;5.38;;;;;;;;;;5542169;26;19986;-43
2024/04/24 11:01:21;;;;;;;16.83;5.20;;;;;;;;;;5542113;25;19986;-43
2024/04/24 11:03:47;;;;;;;18.48;5.28;;;;;;;;;;5542073;25;20090;-51
2024/04/24 11:06:14;;;;;;;17.75;5.18;;;;;;;;;;5538217;25;20037;-48
2024/04/24 11:08:44;;;;;;;15.63;6.18;;;;;;;;;;5534231;26;19997;-44
2024/04/24 11:11:10;;;;;;;13.13;4.47;;;;;;;;;;5542392;25;20013;-44
2024/04/24 11:13:37;;;;;;;14.90;4.78;;;;;;;;;;5541978;26;20186;-42
2024/04/24 11:16:04;;;;;;;17.73;5.18;;;;;;;;;;5541826;26;20193;-47
2024/04/24 11:18:34;;;;;;;22.52;5.20;;;;;;;;;;5546780;25;20045;-42
2024/04/24 11:21:01;;;;;;;23.67;5.80;;;;;;;;;;5542985;25;20001;-43
2024/04/24 11:23:29;;;;;;;23.55;5.60;;;;;;;;;;5541815;26;20014;-43
2024/04/24 11:25:56;;;;;;;27.13;6.22;;;;;;;;;;5551158;25;20053;-41
2024/04/24 11:28:25;;;;;;;22.85;6.03;;;;;;;;;;5562631;25;19993;-43
2024/04/24 11:30:52;;;;;;;24.85;7.50;;;;;;;;;;5553120;25;19993;-43
2024/04/24 11:33:18;;;;;;;21.85;6.82;;;;;;;;;;5572214;25;19996;-42
2024/04/24 11:35:45;;;;;;;19.27;5.50;;;;;;;;;;5546586;25;19994;-42
2024/04/24 11:38:12;;;;;;;27.88;7.50;;;;;;;;;;5515656;26;19993;-45
2024/04/24 11:40:41;;;;;;;34.53;6.57;;;;;;;;;;5546930;25;19996;-41
2024/04/24 11:43:08;;;;;;;27.15;6.20;;;;;;;;;;5553576;25;19977;-42
2024/04/24 11:45:35;;;;;;;21.52;5.80;;;;;;;;;;5543659;25;19993;-46
2024/04/24 11:48:03;;;;;;;24.88;6.05;;;;;;;;;;5538623;26;19992;-47
2024/04/24 11:50:29;;;;;;;29.33;5.35;;;;;;;;;;5539010;26;19990;-50
2024/04/24 11:53:04;;;;;;;20.73;5.65;;;;;;;;;;5538846;26;19985;-46
2024/04/24 11:55:34;;;;;;;22.40;5.63;;;;;;;;;;5539052;26;19989;-47
2024/04/24 11:58:09;;;;;;;18.90;4.72;;;;;;;;;;5540878;26;20022;-51
2024/04/24 12:00:39;;;;;;;20.48;4.95;;;;;;;;;;5541272;26;20000;-49
2024/04/24 12:03:06;;;;;;;20.77;5.05;;;;;;;;;;5542244;26;19985;-50
2024/04/24 12:05:32;;;;;;;18.17;5.47;;;;;;;;;;5541263;26;20045;-43
2024/04/24 12:07:59;;;;;;;17.05;4.53;;;;;;;;;;5538223;26;20467;-47
2024/04/24 12:10:26;;;;;;;17.95;4.80;;;;;;;;;;5538237;26;20471;-51
2024/04/24 12:12:54;;;;;;;15.18;5.20;;;;;;;;;;5538327;26;19995;-49
2024/04/24 12:15:20;;;;;;;16.80;5.43;;;;;;;;;;5538111;26;20017;-46
2024/04/24 12:17:47;;;;;;;13.43;4.88;;;;;;;;;;5538473;26;19985;-44
2024/04/24 12:20:14;;;;;;;19.05;5.13;;;;;;;;;;5538938;26;19993;-46
2024/04/24 12:22:41;;;;;;;14.93;5.15;;;;;;;;;;5541441;26;19991;-49
2024/04/24 12:25:08;;;;;;;16.75;4.80;;;;;;;;;;5542088;26;20095;-43
2024/04/24 12:27:34;;;;;;;17.55;5.18;;;;;;;;;;5541897;26;19993;-43
2024/04/24 12:30:01;;;;;;;17.75;4.97;;;;;;;;;;5541735;26;20038;-44
2024/04/24 12:32:28;;;;;;;17.02;5.15;;;;;;;;;;5541680;26;19985;-48
2024/04/24 12:34:55;;;;;;;16.85;4.97;;;;;;;;;;5541578;26;19985;-42
2024/04/24 12:37:22;;;;;;;14.63;5.00;;;;;;;;;;5541602;26;19989;-49
2024/04/24 12:39:48;;;;;;;15.80;4.97;;;;;;;;;;5541635;26;20059;-44
2024/04/24 12:42:15;;;;;;;15.60;4.82;;;;;;;;;;5541261;26;20005;-45
2024/04/24 12:44:42;;;;;;;14.82;4.65;;;;;;;;;;5541461;26;19981;-46
2024/04/24 12:47:12;;;;;;;15.50;4.75;;;;;;;;;;5540793;26;19989;-47
2024/04/24 12:49:39;;;;;;;16.35;4.95;;;;;;;;;;5541365;26;19985;-42
2024/04/24 12:52:05;;;;;;;16.75;4.78;;;;;;;;;;5541543;26;19989;-41
2024/04/24 12:54:32;;;;;;;14.70;5.03;;;;;;;;;;5541489;26;19986;-44
2024/04/24 12:56:58;;;;;;;12.40;4.88;;;;;;;;;;5541672;26;19991;-47
2024/04/24 12:59:26;;;;;;;16.70;4.95;;;;;;;;;;5540919;26;19997;-45
2024/04/24 13:01:52;;;;;;;14.05;5.13;;;;;;;;;;5541638;26;19981;-51
2024/04/24 13:04:19;;;;;;;12.75;4.80;;;;;;;;;;5540846;26;20083;-46
2024/04/24 13:06:45;;;;;;;17.15;4.78;;;;;;;;;;5541093;26;20005;-43
2024/04/24 13:09:12;;;;;;;13.25;4.43;;;;;;;;;;5541150;26;19990;-44
2024/04/24 13:11:39;;;;;;;13.88;4.97;;;;;;;;;;5541264;26;19986;-48
2024/04/24 13:14:05;;;;;;;15.10;4.78;;;;;;;;;;5541014;26;20174;-46
2024/04/24 13:16:32;;;;;;;13.10;4.65;;;;;;;;;;5541306;26;20001;-45
2024/04/24 13:18:59;;;;;;;15.73;4.63;;;;;;;;;;5540841;26;20086;-43
2024/04/24 13:21:25;;;;;;;15.18;4.68;;;;;;;;;;5540794;26;19993;-46
2024/04/24 13:23:54;;;;;;;15.43;4.82;;;;;;;;;;5540434;26;20005;-47
2024/04/24 13:26:21;;;;;;;16.75;5.10;;;;;;;;;;5540139;26;19985;-49
2024/04/24 13:28:48;;;;;;;12.93;4.80;;;;;;;;;;5540474;26;20004;-45
2024/04/24 13:31:14;;;;;;;14.63;4.68;;;;;;;;;;5540478;26;20005;-45
2024/04/24 13:33:41;;;;;;;19.77;5.18;;;;;;;;;;5541219;26;20045;-44
2024/04/24 13:36:08;;;;;;;12.70;4.55;;;;;;;;;;5540461;26;19989;-43
2024/04/24 13:38:34;;;;;;;15.90;4.40;;;;;;;;;;5540955;26;20054;-42
2024/04/24 13:41:04;;;;;;;15.65;4.85;;;;;;;;;;5540178;26;19990;-42
2024/04/24 13:43:31;;;;;;;12.55;4.22;;;;;;;;;;5540683;26;19993;-44
2024/04/24 13:45:57;;;;;;;14.05;4.60;;;;;;;;;;5540714;26;20249;-46
2024/04/24 13:48:24;;;;;;;12.63;4.40;;;;;;;;;;5540313;26;19985;-44
2024/04/24 13:50:51;;;;;;;12.95;4.40;;;;;;;;;;5540640;26;19993;-49
2024/04/24 13:53:17;;;;;;;12.77;4.38;;;;;;;;;;5539734;26;19993;-48
2024/04/24 13:55:44;;;;;;;12.75;4.35;;;;;;;;;;5540102;26;20003;-50
2024/04/24 13:58:11;;;;;;;13.80;4.65;;;;;;;;;;5540173;26;19992;-51
2024/04/24 14:00:37;;;;;;;16.20;4.80;;;;;;;;;;5542076;26;20206;-47
2024/04/24 14:03:04;;;;;;;11.23;4.38;;;;;;;;;;5544258;26;20119;-48
2024/04/24 14:05:31;;;;;;;15.15;4.75;;;;;;;;;;5543839;26;19996;-46
2024/04/24 14:07:57;;;;;;;18.92;4.43;;;;;;;;;;5543705;26;19978;-49
2024/04/24 14:10:24;;;;;;;15.90;4.43;;;;;;;;;;5543931;26;19993;-46
2024/04/24 14:12:50;;;;;;;16.33;4.85;;;;;;;;;;5543926;26;19981;-51
2024/04/24 14:15:17;;;;;;;19.25;5.63;;;;;;;;;;5543487;26;19989;-44
2024/04/24 14:17:45;;;;;;;30.83;5.45;;;;;;;;;;5544140;26;19988;-45
2024/04/24 14:20:11;;;;;;;16.35;4.82;;;;;;;;;;5543719;26;20183;-45
2024/04/24 14:22:38;;;;;;;19.80;5.50;;;;;;;;;;5543717;26;19977;-50
2024/04/24 14:25:06;;;;;;;24.92;5.70;;;;;;;;;;5543362;26;20048;-44
2024/04/24 14:27:32;;;;;;;19.55;5.03;;;;;;;;;;5543661;26;19990;-43
2024/04/24 14:29:59;;;;;;;26.70;5.50;;;;;;;;;;5543405;26;20004;-43
2024/04/24 14:32:26;;;;;;;16.75;5.50;;;;;;;;;;5543984;26;19981;-53